Hauptseite
METAR-TAF:

METAR-TAF

Flughäfen :

Montichiari

Brescia, Italien

Breite: 45-24-02N, Länge: 010-18-59E, Höhe: 104 m

Beobachtung

Neuester Wetterbericht von vor 31 Minuten, um 23:50 UTC
Wind 3 kt aus Ost
Temperatur 23°C
Luftfeuchtigkeit 69%
Luftdruck 1018 hPa
Sichtweite 10 km oder mehr
keine Wolken unter 1500 m und keine Kumulonimbus oder Gewitterwolken

METAR: LIPO 202350Z 08003KT CAVOK 23/17 Q1018

Zeit: 02:21 (00:21 UTC)

Prognose

Neuester Wetterbericht von vor 1 Stunde und 21 Minuten, um 23:00 UTC
Gültige Prognose vom 21 um 00 UTC bis 21 um 24 UTC
Wind 7 kt aus Nordost
Sichtweite 10 km oder mehr
keine Wolken unter 1500 m und keine Kumulonimbus oder Gewitterwolken

TAF: LIPO 202300Z 2100/2124 05007KT CAVOK

Wetterbeobachtungen und Prognosen von mehr als 4000 Flughäfen (METAR und TAF Bericht).

Die verfügbaren Stationen werden durch gelbe und rote Markierungen auf der Karte dargestellt.

Führen Sie die Maus auf sie, um den Namen der Station zu sehen.

Darauf klicken, um die Beobachtung von Wetterbeobachtungen und Prognosen zu sehen.

Um die Karte zu ändern : klicken Sie auf den grünen Tasten mit einem schwarzen Kreuz Zum Vergrößern, auf den grünen Button mit einem Gedankenstrich zu verkleinern, oder auf die grünen Pfeile für benachbarte Karten.


METAR-TAF: